EDT,Max TemperatureF,Mean TemperatureF,Min TemperatureF,Max Dew PointF,MeanDew PointF,Min DewpointF,Max Humidity, Mean Humidity, Min Humidity, Max Sea Level PressureIn, Mean Sea Level PressureIn, Min Sea Level PressureIn, Max VisibilityMiles, Mean VisibilityMiles, Min VisibilityMiles, Max Wind SpeedMPH, Mean Wind SpeedMPH, Max Gust SpeedMPH,PrecipitationIn, CloudCover, Events, WindDirDegrees
2014-3-1,59,47,34,34,26,8,64,48,32,30.22,30.15,30.12,10,9,2,10,3,17,T,8,,209
2014-3-2,54,42,29,47,37,27,96,73,50,30.12,30.04,30.00,10,4,0,15,5,26,1.57,8,Fog-Rain-Thunderstorm,22
2014-3-3,30,20,10,27,16,5,92,83,73,30.39,30.15,30.02,10,3,0,13,5,23,1.04,7,Fog-Rain-Snow,36
2014-3-4,34,21,8,25,17,4,85,73,61,30.33,30.24,30.14,10,10,10,8,1,12,0.00,3,,123
2014-3-5,46,36,26,25,22,13,92,66,40,30.27,30.22,30.16,10,10,9,9,3,16,0.00,4,,64
2014-3-6,50,38,25,25,19,13,62,51,39,30.25,30.16,30.07,10,10,2,9,5,16,0.00,0,,53
2014-3-7,61,49,36,37,31,22,70,55,39,30.05,30.00,29.94,10,10,10,7,2,13,0.00,2,,34
2014-3-8,64,51,38,39,33,29,79,56,32,30.09,30.04,29.99,10,10,10,15,5,24,0.00,2,,235
2014-3-9,56,46,36,38,32,27,85,59,32,30.24,30.16,30.06,10,6,1,14,5,19,0.00,5,,298
2014-3-10,68,53,37,39,32,27,64,48,31,30.06,29.94,29.82,10,10,10,15,7,22,0.00,0,,231
2014-3-11,77,63,49,41,35,28,63,42,20,29.82,29.73,29.62,10,10,10,13,6,21,0.00,0,,229
2014-3-12,62,45,28,55,37,23,93,68,42,29.94,29.62,29.31,10,6,0,29,9,46,0.30,8,Fog-Rain-Snow,287
2014-3-13,39,29,19,22,12,6,75,53,28,30.23,30.11,29.93,10,10,10,13,7,21,0.00,2,,291
2014-3-14,64,47,30,29,20,7,44,34,23,30.18,30.06,29.92,10,10,10,17,7,35,0.00,2,,207
2014-3-15,65,56,47,35,28,21,61,40,19,30.09,30.03,29.96,10,10,10,16,6,26,0.00,2,,277
2014-3-16,51,39,28,32,28,25,93,78,38,30.02,29.90,29.82,10,4,0,14,8,28,0.67,6,Rain-Snow,44
2014-3-17,35,30,25,31,28,23,92,87,82,29.90,29.84,29.79,10,6,2,9,3,17,0.05,8,Rain,40
2014-3-18,58,46,33,44,36,30,89,73,57,30.02,29.93,29.86,10,9,2,8,2,12,0.00,6,,69
2014-3-19,63,53,43,42,40,35,83,65,47,30.01,29.92,29.86,10,10,10,20,7,30,0.00,4,,218
2014-3-20,57,47,36,35,27,21,76,51,26,30.14,30.08,30.01,10,9,0,14,6,21,0.00,3,,257
2014-3-21,71,56,40,26,21,17,50,32,14,30.11,30.02,29.93,10,9,0,13,6,23,0.00,0,,210
2014-3-22,64,54,43,32,26,21,49,36,22,30.10,29.99,29.88,10,10,10,12,6,20,0.00,2,,298
2014-3-23,47,38,28,30,24,12,75,57,38,30.29,30.18,30.11,10,9,1,14,6,21,0.00,3,,25
2014-3-24,46,35,23,13,10,7,59,40,21,30.32,30.23,30.09,10,10,10,9,4,14,0.00,1,,33
2014-3-25,35,30,25,29,25,15,92,70,47,30.19,29.99,29.94,10,3,0,18,6,29,0.19,8,Fog-Snow,297
2014-3-26,42,31,20,15,12,8,68,50,32,30.38,30.30,30.20,10,10,10,10,4,18,0.00,2,,306
2014-3-27,63,47,31,19,15,10,53,34,15,30.29,30.13,29.95,10,10,10,16,6,26,T,5,,176
2014-3-28,68,59,50,52,47,28,89,61,33,30.04,29.98,29.90,10,10,6,16,5,30,0.12,7,Rain,204
2014-3-29,57,45,32,50,43,30,96,87,77,30.03,29.85,29.73,10,3,0,16,7,26,1.52,7,Fog-Rain-Snow,350
2014-3-30,53,42,31,32,28,24,92,64,35,30.20,30.10,30.02,10,7,1,16,6,23,0.04,6,Snow,314
2014-3-31,68,52,35,30,25,21,70,44,18,30.25,30.16,30.04,10,8,0,8,3,12,0.00,0,,157